King's Lynn, United Kingdom
Current Conditions -  °F | °C
As of 11:50 AM on Monday 20 Oct 2014 (Local Time) from EGYM Reporting Station
Broken Clouds Broken Clouds  
Wind Chill: 59°   Ceiling: 18000
Heat Index: 59°   Visibility: 6mi
Dew Point: 52°   Wind: 17mph
Humidity: 77%   Direction: 230°SW
Pressure: 29.94"   Gusts: NA
Location:  52.75°N, 0.4°E
Report Text: EGYM 201050Z 23015KT 9999 FEW018 SCT130 BKN180 15/11 Q1014 BLU NOSIG
Loading
Personal Weather Stations






























Interactive Weather Map
Tropical Storm Tracking
New forecast layout! Learn more

10-Day Weather Forecast

Advertisements
Track Severe Weather on mobile